createdAt,value
2019-03-21T00:00:51.109Z,8.20
2019-03-21T00:02:25.407Z,8.17
2019-03-21T00:04:02.998Z,8.17
2019-03-21T00:05:37.445Z,8.13
2019-03-21T00:07:11.782Z,8.10
2019-03-21T00:08:47.669Z,8.05
2019-03-21T00:10:30.745Z,7.96
2019-03-21T00:12:11.976Z,7.91
2019-03-21T00:13:46.205Z,7.84
2019-03-21T00:15:22.872Z,7.80
2019-03-21T00:16:56.645Z,7.77
2019-03-21T00:18:30.854Z,7.75
2019-03-21T00:20:10.916Z,7.72
2019-03-21T00:21:45.271Z,7.69
2019-03-21T00:23:19.572Z,7.67
2019-03-21T00:24:53.814Z,7.66
2019-03-21T00:26:28.130Z,7.65
2019-03-21T00:28:02.379Z,7.63
2019-03-21T00:29:37.118Z,7.61
2019-03-21T00:31:11.402Z,7.61
2019-03-21T00:32:45.750Z,7.63
2019-03-21T00:34:20.097Z,7.63
2019-03-21T00:35:54.429Z,7.66
2019-03-21T00:37:31.545Z,7.66
2019-03-21T00:39:08.385Z,7.68
2019-03-21T00:40:47.020Z,7.70
2019-03-21T00:42:21.250Z,7.69
2019-03-21T00:43:55.501Z,7.67
2019-03-21T00:45:29.734Z,7.63
2019-03-21T00:47:04.063Z,7.60
2019-03-21T00:48:38.367Z,7.59
2019-03-21T00:50:15.390Z,7.57
2019-03-21T00:51:49.714Z,7.56
2019-03-21T00:53:23.416Z,7.55
2019-03-21T00:54:57.721Z,7.54
2019-03-21T00:56:32.259Z,7.53
2019-03-21T00:58:06.601Z,7.52
2019-03-21T00:59:40.823Z,7.52
2019-03-21T01:01:15.048Z,7.51
2019-03-21T01:02:49.297Z,7.51
2019-03-21T01:04:25.552Z,7.50
2019-03-21T01:05:59.816Z,7.50
2019-03-21T01:07:34.111Z,7.48
2019-03-21T01:09:11.251Z,7.43
2019-03-21T01:10:45.512Z,7.30
2019-03-21T01:12:20.231Z,7.17
2019-03-21T01:13:54.555Z,7.07
2019-03-21T01:15:28.902Z,6.98
2019-03-21T01:17:02.563Z,6.94
2019-03-21T01:18:45.155Z,6.88
2019-03-21T01:20:19.525Z,6.78
2019-03-21T01:21:53.243Z,6.74
2019-03-21T01:23:27.564Z,6.72
2019-03-21T01:25:01.876Z,6.71
2019-03-21T01:26:36.241Z,6.71
2019-03-21T01:28:11.135Z,6.71
2019-03-21T01:29:46.046Z,6.73
2019-03-21T01:31:20.271Z,6.75
2019-03-21T01:32:54.538Z,6.75
2019-03-21T01:34:28.847Z,6.75
2019-03-21T01:36:04.290Z,6.75
2019-03-21T01:37:38.536Z,6.77
2019-03-21T01:39:12.814Z,6.75
2019-03-21T01:40:55.490Z,6.75
2019-03-21T01:42:29.818Z,6.75
2019-03-21T01:44:03.515Z,6.72
2019-03-21T01:45:37.858Z,6.70
2019-03-21T01:47:12.151Z,6.69
2019-03-21T01:48:46.505Z,6.63
2019-03-21T01:50:22.794Z,6.62
2019-03-21T01:51:56.427Z,6.61
2019-03-21T01:53:30.795Z,6.59
2019-03-21T01:55:08.296Z,6.57
2019-03-21T01:56:42.637Z,6.58
2019-03-21T01:58:17.558Z,6.61
2019-03-21T01:59:52.216Z,6.59
2019-03-21T02:01:26.581Z,6.55
2019-03-21T02:03:00.888Z,6.45
2019-03-21T02:04:35.176Z,6.56
2019-03-21T02:06:09.550Z,6.52
2019-03-21T02:07:43.847Z,6.53
2019-03-21T02:09:18.141Z,6.55
2019-03-21T02:10:52.483Z,6.59
2019-03-21T02:12:26.714Z,6.62
2019-03-21T02:14:01.033Z,6.59
2019-03-21T02:15:35.323Z,6.52
2019-03-21T02:17:09.585Z,6.50
2019-03-21T02:18:45.736Z,6.48
2019-03-21T02:20:22.089Z,6.49
2019-03-21T02:21:56.435Z,6.52
2019-03-21T02:23:30.829Z,6.54
2019-03-21T02:25:10.657Z,6.57
2019-03-21T02:26:44.369Z,6.57
2019-03-21T02:28:18.067Z,6.63
2019-03-21T02:29:52.992Z,6.67
2019-03-21T02:31:27.313Z,6.67
2019-03-21T02:33:04.873Z,6.66
2019-03-21T02:34:39.240Z,6.65
2019-03-21T02:36:14.368Z,6.64
2019-03-21T02:37:48.656Z,6.68
2019-03-21T02:39:22.977Z,6.70
2019-03-21T02:41:03.155Z,6.74
2019-03-21T02:42:37.471Z,6.79
2019-03-21T02:44:11.196Z,6.86
2019-03-21T02:45:45.478Z,6.88
2019-03-21T02:47:19.160Z,6.92
2019-03-21T02:48:53.459Z,6.96
2019-03-21T02:50:31.053Z,6.96
2019-03-21T02:52:05.299Z,6.93
2019-03-21T02:53:39.595Z,6.87
2019-03-21T02:55:13.300Z,6.83
2019-03-21T02:56:47.876Z,6.72
2019-03-21T02:58:22.182Z,6.70
2019-03-21T02:59:56.538Z,6.71
2019-03-21T03:01:31.463Z,6.70
2019-03-21T03:03:06.946Z,6.72
2019-03-21T03:04:41.281Z,6.76
2019-03-21T03:06:15.629Z,6.74
2019-03-21T03:07:49.902Z,6.73
2019-03-21T03:09:24.193Z,6.75
2019-03-21T03:11:00.700Z,6.75
2019-03-21T03:12:34.957Z,6.81
2019-03-21T03:14:09.204Z,6.78
2019-03-21T03:15:43.832Z,6.84
2019-03-21T03:17:18.071Z,6.89
2019-03-21T03:18:52.307Z,6.95
2019-03-21T03:20:26.551Z,7.01
2019-03-21T03:22:00.867Z,7.08
2019-03-21T03:23:35.137Z,7.10
2019-03-21T03:25:11.585Z,7.12
2019-03-21T03:26:45.932Z,7.13
2019-03-21T03:28:25.547Z,7.16
2019-03-21T03:30:00.055Z,7.19
2019-03-21T03:31:34.337Z,7.21
2019-03-21T03:33:09.126Z,7.26
2019-03-21T03:34:43.442Z,7.29
2019-03-21T03:36:17.777Z,7.31
2019-03-21T03:37:52.015Z,7.29
2019-03-21T03:39:26.366Z,7.25
2019-03-21T03:41:06.419Z,7.21
2019-03-21T03:42:40.748Z,7.24
2019-03-21T03:44:14.985Z,7.25
2019-03-21T03:45:49.292Z,7.24
2019-03-21T03:47:23.538Z,7.26
2019-03-21T03:48:57.860Z,7.28
2019-03-21T03:50:32.235Z,7.26
2019-03-21T03:52:06.534Z,7.24
2019-03-21T03:53:42.503Z,7.22
2019-03-21T03:55:20.523Z,7.21
2019-03-21T03:56:54.733Z,7.20
2019-03-21T03:58:46.965Z,7.22
2019-03-21T04:00:22.263Z,7.24
2019-03-21T04:01:57.987Z,7.23
2019-03-21T04:03:32.312Z,7.15
2019-03-21T04:05:09.794Z,7.11
2019-03-21T04:06:46.082Z,7.13
2019-03-21T04:08:20.313Z,7.11
2019-03-21T04:09:54.619Z,7.10
2019-03-21T04:11:28.923Z,7.06
2019-03-21T04:13:03.178Z,7.06
2019-03-21T04:14:37.451Z,7.05
2019-03-21T04:16:11.704Z,7.06
2019-03-21T04:17:45.931Z,7.07
2019-03-21T04:19:20.245Z,7.09
2019-03-21T04:21:03.593Z,7.12
2019-03-21T04:22:37.918Z,7.14
2019-03-21T04:24:12.227Z,7.19
2019-03-21T04:25:49.455Z,7.21
2019-03-21T04:27:23.733Z,7.24
2019-03-21T04:28:57.968Z,7.25
2019-03-21T04:30:32.692Z,7.27
2019-03-21T04:32:06.974Z,7.26
2019-03-21T04:33:42.829Z,7.26
2019-03-21T04:35:17.107Z,7.25
2019-03-21T04:36:51.319Z,7.28
2019-03-21T04:38:25.574Z,7.28
2019-03-21T04:39:59.879Z,7.27
2019-03-21T04:41:33.592Z,7.27
2019-03-21T04:43:07.825Z,7.30
2019-03-21T04:44:44.406Z,7.32
2019-03-21T04:46:18.061Z,7.34
2019-03-21T04:47:52.397Z,7.29
2019-03-21T04:49:27.102Z,7.40
2019-03-21T04:51:01.406Z,7.42
2019-03-21T04:52:35.770Z,7.40
2019-03-21T04:54:10.070Z,7.40
2019-03-21T04:55:44.379Z,7.40
2019-03-21T04:57:18.634Z,7.41
2019-03-21T04:58:52.973Z,7.43
2019-03-21T05:00:39.094Z,7.47
2019-03-21T05:02:13.454Z,7.52
2019-03-21T05:03:47.711Z,7.57
2019-03-21T05:05:22.115Z,7.63
2019-03-21T05:06:56.376Z,7.69
2019-03-21T05:08:30.596Z,7.71
2019-03-21T05:10:07.800Z,7.73
2019-03-21T05:11:42.104Z,7.78
2019-03-21T05:13:16.432Z,7.84
2019-03-21T05:14:50.743Z,7.87
2019-03-21T05:16:24.967Z,7.89
2019-03-21T05:18:04.488Z,7.92
2019-03-21T05:19:38.763Z,7.96
2019-03-21T05:21:15.990Z,8.00
2019-03-21T05:22:50.258Z,8.06
2019-03-21T05:24:24.488Z,8.03
2019-03-21T05:25:58.766Z,8.01
2019-03-21T05:27:32.990Z,8.02
2019-03-21T05:29:07.337Z,8.05
2019-03-21T05:30:53.392Z,8.02
2019-03-21T05:32:27.679Z,8.07
2019-03-21T05:34:02.053Z,8.07
2019-03-21T05:35:36.367Z,8.02
2019-03-21T05:37:10.623Z,8.00
2019-03-21T05:38:44.904Z,8.00
2019-03-21T05:40:21.181Z,7.96
2019-03-21T05:41:55.413Z,7.98
2019-03-21T05:43:45.259Z,7.95
2019-03-21T05:45:21.732Z,7.94
2019-03-21T05:46:56.047Z,8.00
2019-03-21T05:48:30.268Z,8.05
2019-03-21T05:50:07.386Z,8.11
2019-03-21T05:51:42.098Z,8.15
2019-03-21T05:53:16.394Z,8.22
2019-03-21T05:54:50.670Z,8.26
2019-03-21T05:56:25.011Z,8.31
2019-03-21T05:57:59.289Z,8.31
2019-03-21T05:59:33.533Z,8.31
2019-03-21T06:01:12.960Z,8.31
2019-03-21T06:02:47.292Z,8.32
2019-03-21T06:04:21.627Z,8.31
2019-03-21T06:06:01.868Z,8.40
2019-03-21T06:07:38.561Z,8.47
2019-03-21T06:09:18.760Z,8.52
2019-03-21T06:10:52.976Z,8.61
2019-03-21T06:12:27.229Z,8.68
2019-03-21T06:14:01.554Z,8.77
2019-03-21T06:15:38.666Z,8.83
2019-03-21T06:17:12.896Z,8.90
2019-03-21T06:19:05.337Z,8.91
2019-03-21T06:20:59.097Z,8.96
2019-03-21T06:22:45.021Z,9.00
2019-03-21T06:24:43.384Z,9.01
2019-03-21T06:26:44.655Z,8.97
2019-03-21T06:28:18.911Z,8.98
2019-03-21T06:29:53.226Z,8.99
2019-03-21T06:31:27.792Z,9.00
2019-03-21T06:33:02.092Z,9.02
2019-03-21T06:34:36.433Z,8.98
2019-03-21T06:36:10.664Z,8.96
2019-03-21T06:37:45.460Z,8.95
2019-03-21T06:39:19.698Z,8.96
2019-03-21T06:40:54.010Z,9.02
2019-03-21T06:42:27.665Z,9.08
2019-03-21T06:44:01.945Z,9.12
2019-03-21T06:45:47.292Z,9.14
2019-03-21T06:47:12.167Z,9.19
2019-03-21T06:48:47.861Z,9.28
2019-03-21T06:50:22.175Z,9.36
2019-03-21T06:51:56.575Z,9.44
2019-03-21T06:53:31.498Z,9.51
2019-03-21T06:55:06.037Z,9.58
2019-03-21T06:56:40.354Z,9.68
2019-03-21T06:58:14.631Z,9.74
2019-03-21T06:59:50.181Z,9.81
2019-03-21T07:01:24.421Z,9.82
2019-03-21T07:02:58.212Z,9.75
2019-03-21T07:04:32.528Z,9.74
2019-03-21T07:06:06.777Z,9.81
2019-03-21T07:07:41.020Z,9.87
2019-03-21T07:09:15.685Z,9.91
2019-03-21T07:10:50.018Z,9.97
2019-03-21T07:12:24.261Z,10.08
2019-03-21T07:13:58.595Z,10.20
2019-03-21T07:15:32.886Z,10.30
2019-03-21T07:17:07.205Z,10.41
2019-03-21T07:18:41.459Z,10.54
2019-03-21T07:20:15.696Z,10.69
2019-03-21T07:21:50.000Z,10.80
2019-03-21T07:23:24.314Z,10.87
2019-03-21T07:24:59.027Z,10.90
2019-03-21T07:26:33.284Z,10.98
2019-03-21T07:28:07.624Z,11.12
2019-03-21T07:29:41.963Z,11.22
2019-03-21T07:31:16.189Z,11.32
2019-03-21T07:32:50.619Z,11.46
2019-03-21T07:34:24.838Z,11.60
2019-03-21T07:35:59.163Z,11.68
2019-03-21T07:37:33.466Z,11.74
2019-03-21T07:39:08.384Z,11.83
2019-03-21T07:40:42.805Z,11.90
2019-03-21T07:42:17.149Z,11.97
2019-03-21T07:43:51.458Z,12.04
2019-03-21T07:45:25.777Z,12.20
2019-03-21T07:47:11.713Z,12.34
2019-03-21T07:48:36.137Z,12.46
2019-03-21T07:50:14.761Z,12.61
2019-03-21T07:51:50.957Z,12.87
2019-03-21T07:53:25.200Z,13.11
2019-03-21T07:54:59.441Z,13.40
2019-03-21T07:56:33.825Z,13.63
2019-03-21T07:58:08.108Z,13.77
2019-03-21T07:59:42.338Z,13.79
2019-03-21T08:01:16.571Z,13.85
2019-03-21T08:02:50.923Z,13.98
2019-03-21T08:04:25.162Z,14.07
2019-03-21T08:05:59.441Z,14.18
2019-03-21T08:07:33.678Z,14.03
2019-03-21T08:09:08.296Z,13.75
2019-03-21T08:10:42.589Z,13.67
2019-03-21T08:12:16.929Z,13.74
2019-03-21T08:13:51.175Z,13.93
2019-03-21T08:15:25.477Z,13.97
2019-03-21T08:17:00.723Z,14.11
2019-03-21T08:18:34.959Z,14.21
2019-03-21T08:20:11.679Z,14.29
2019-03-21T08:21:45.927Z,14.45
2019-03-21T08:23:20.191Z,14.64
2019-03-21T08:24:54.483Z,14.84
2019-03-21T08:26:28.777Z,14.99
2019-03-21T08:28:03.450Z,15.04
2019-03-21T08:29:37.673Z,15.22
2019-03-21T08:31:14.041Z,15.16
2019-03-21T08:32:48.366Z,15.14
2019-03-21T08:34:22.982Z,15.44
2019-03-21T08:35:57.282Z,16.29
2019-03-21T08:37:31.502Z,16.96
2019-03-21T08:39:07.690Z,17.67
2019-03-21T08:40:42.715Z,18.22
2019-03-21T08:42:17.197Z,18.52
2019-03-21T08:43:51.444Z,19.05
2019-03-21T08:45:25.727Z,19.24
2019-03-21T08:46:59.988Z,19.56
2019-03-21T08:48:34.230Z,19.96
2019-03-21T08:50:11.268Z,20.26
2019-03-21T08:51:45.558Z,20.30
2019-03-21T08:53:19.789Z,20.14
2019-03-21T08:54:54.123Z,20.53
2019-03-21T08:56:28.436Z,20.99
2019-03-21T08:58:02.976Z,20.78
2019-03-21T08:59:37.335Z,20.52
2019-03-21T09:01:11.613Z,20.81
2019-03-21T09:02:45.940Z,21.20
2019-03-21T09:04:20.251Z,21.65
2019-03-21T09:05:54.475Z,21.57
2019-03-21T09:07:28.842Z,21.58
2019-03-21T09:09:04.158Z,21.29
2019-03-21T09:10:38.363Z,20.78
2019-03-21T09:12:12.655Z,19.99
2019-03-21T09:13:47.409Z,19.68
2019-03-21T09:15:21.707Z,19.70
2019-03-21T09:16:55.943Z,19.92
2019-03-21T09:18:30.822Z,19.99
2019-03-21T09:20:07.190Z,19.83
2019-03-21T09:21:41.422Z,19.77
2019-03-21T09:23:15.749Z,20.10
2019-03-21T09:24:49.997Z,20.43
2019-03-21T09:26:24.351Z,20.71
2019-03-21T09:28:02.773Z,20.96
2019-03-21T09:29:34.487Z,21.03
2019-03-21T09:31:08.797Z,21.08
2019-03-21T09:32:43.070Z,21.09
2019-03-21T09:34:17.438Z,20.63
2019-03-21T09:35:51.850Z,20.30
2019-03-21T09:37:26.083Z,20.39
2019-03-21T09:39:00.319Z,20.97
2019-03-21T09:40:34.603Z,20.86
2019-03-21T09:42:08.847Z,20.71
2019-03-21T09:43:43.068Z,20.81
2019-03-21T09:45:17.351Z,20.89
2019-03-21T09:46:51.759Z,21.16
2019-03-21T09:48:26.042Z,21.34
2019-03-21T09:50:00.421Z,21.46
2019-03-21T09:51:34.736Z,21.64
2019-03-21T09:53:09.053Z,20.99
2019-03-21T09:54:43.287Z,21.19
2019-03-21T09:56:17.625Z,21.56
2019-03-21T09:57:51.859Z,21.99
2019-03-21T09:59:26.144Z,22.17
2019-03-21T10:01:00.439Z,22.25
2019-03-21T10:02:34.986Z,21.92
2019-03-21T10:04:09.226Z,21.13
2019-03-21T10:05:43.574Z,20.26
2019-03-21T10:07:17.872Z,19.72
2019-03-21T10:08:52.109Z,19.63
2019-03-21T10:10:29.181Z,19.61
2019-03-21T10:12:03.535Z,19.52
2019-03-21T10:13:37.776Z,19.34
2019-03-21T10:15:12.128Z,19.14
2019-03-21T10:16:46.406Z,19.27
2019-03-21T10:18:20.620Z,19.32
2019-03-21T10:19:54.953Z,19.30
2019-03-21T10:21:29.197Z,19.51
2019-03-21T10:23:03.490Z,19.52
2019-03-21T10:24:37.789Z,19.65
2019-03-21T10:26:12.074Z,19.74
2019-03-21T10:27:46.397Z,19.89
2019-03-21T10:29:20.688Z,20.24
2019-03-21T10:30:57.235Z,20.30
2019-03-21T10:32:31.417Z,20.33
2019-03-21T10:34:05.644Z,20.18
2019-03-21T10:35:39.950Z,20.02
2019-03-21T10:37:14.557Z,19.94
2019-03-21T10:38:48.838Z,19.83
2019-03-21T10:40:23.135Z,19.73
2019-03-21T10:41:57.469Z,19.79
2019-03-21T10:43:31.800Z,19.67
2019-03-21T10:45:07.641Z,19.72
2019-03-21T10:46:42.078Z,19.77
2019-03-21T10:48:16.308Z,19.68
2019-03-21T10:49:50.594Z,19.50
2019-03-21T10:51:24.955Z,19.15
2019-03-21T10:52:59.653Z,18.68
2019-03-21T10:54:33.885Z,18.33
2019-03-21T10:56:08.243Z,18.13
2019-03-21T10:57:42.554Z,17.60
2019-03-21T10:59:16.875Z,17.18
2019-03-21T11:00:52.563Z,17.11
2019-03-21T11:02:27.475Z,17.14
2019-03-21T11:04:01.781Z,17.18
2019-03-21T11:05:36.111Z,17.13
2019-03-21T11:07:09.113Z,17.07
2019-03-21T11:08:43.493Z,16.97
2019-03-21T11:10:17.834Z,16.93
2019-03-21T11:11:52.139Z,16.93
2019-03-21T11:13:26.508Z,16.82
2019-03-21T11:15:00.737Z,16.80
2019-03-21T11:16:35.045Z,16.88
2019-03-21T11:18:09.339Z,16.79
2019-03-21T11:19:43.700Z,16.64
2019-03-21T11:21:18.430Z,16.68
2019-03-21T11:22:52.803Z,16.90
2019-03-21T11:24:27.124Z,17.15
2019-03-21T11:26:01.440Z,17.31
2019-03-21T11:27:35.728Z,17.27
2019-03-21T11:29:10.047Z,17.12
2019-03-21T11:30:44.474Z,16.85
2019-03-21T11:32:18.742Z,16.76
2019-03-21T11:33:53.055Z,16.54
2019-03-21T11:35:27.376Z,16.32
2019-03-21T11:37:01.669Z,16.04
2019-03-21T11:38:36.415Z,15.78
2019-03-21T11:40:10.623Z,15.58
2019-03-21T11:41:44.981Z,15.53
2019-03-21T11:43:19.238Z,15.43
2019-03-21T11:44:53.467Z,15.47
2019-03-21T11:46:27.768Z,15.53
2019-03-21T11:48:02.122Z,15.50
2019-03-21T11:49:36.391Z,15.45
2019-03-21T11:51:10.666Z,15.20
2019-03-21T11:52:44.979Z,14.72
2019-03-21T11:54:19.235Z,15.23
2019-03-21T11:55:53.473Z,15.36
2019-03-21T11:57:27.777Z,15.48
2019-03-21T11:59:02.038Z,15.56
2019-03-21T12:00:43.525Z,15.67
2019-03-21T12:02:12.295Z,15.73
2019-03-21T12:03:46.673Z,15.70
2019-03-21T12:05:20.919Z,15.69
2019-03-21T12:06:55.230Z,15.79
2019-03-21T12:08:29.558Z,15.78
2019-03-21T12:10:04.787Z,15.85
2019-03-21T12:11:40.084Z,15.95
2019-03-21T12:13:14.398Z,15.86
2019-03-21T12:14:48.660Z,15.84
2019-03-21T12:16:22.912Z,15.91
2019-03-21T12:17:57.224Z,16.00
2019-03-21T12:19:31.965Z,16.11
2019-03-21T12:21:06.271Z,16.18
2019-03-21T12:22:40.516Z,16.34
2019-03-21T12:24:14.809Z,16.32
2019-03-21T12:25:49.101Z,16.30
2019-03-21T12:27:23.434Z,16.30
2019-03-21T12:28:58.007Z,16.25
2019-03-21T12:30:39.682Z,16.32
2019-03-21T12:32:13.949Z,16.38
2019-03-21T12:33:48.279Z,16.31
2019-03-21T12:35:22.613Z,16.28
2019-03-21T12:36:57.975Z,16.29
2019-03-21T12:38:32.309Z,16.21
2019-03-21T12:40:09.192Z,16.23
2019-03-21T12:41:43.488Z,16.22
2019-03-21T12:43:17.836Z,16.11
2019-03-21T12:44:52.163Z,16.05
2019-03-21T12:46:26.425Z,16.04
2019-03-21T12:48:00.667Z,16.02
2019-03-21T12:49:34.994Z,16.03
2019-03-21T12:51:09.227Z,16.07
2019-03-21T12:52:43.588Z,16.18
2019-03-21T12:54:19.481Z,16.11
2019-03-21T12:55:53.772Z,16.06
2019-03-21T12:57:28.068Z,16.04
2019-03-21T12:59:02.345Z,15.91
2019-03-21T13:00:40.833Z,15.70
2019-03-21T13:02:15.141Z,15.58
2019-03-21T13:03:49.431Z,15.45
2019-03-21T13:05:31.438Z,15.40
2019-03-21T13:07:05.677Z,15.36
2019-03-21T13:08:39.943Z,15.47
2019-03-21T13:10:14.375Z,15.57
2019-03-21T13:11:48.675Z,15.61
2019-03-21T13:13:22.968Z,15.65
2019-03-21T13:14:57.223Z,15.64
2019-03-21T13:16:31.558Z,15.74
2019-03-21T13:18:07.185Z,15.90
2019-03-21T13:19:41.542Z,16.05
2019-03-21T13:21:15.962Z,16.19
2019-03-21T13:22:53.207Z,16.28
2019-03-21T13:24:26.273Z,16.26
2019-03-21T13:26:00.578Z,16.31
2019-03-21T13:27:34.894Z,16.33
2019-03-21T13:29:09.151Z,16.28
2019-03-21T13:30:43.458Z,16.21
2019-03-21T13:32:17.732Z,16.16
2019-03-21T13:33:52.052Z,16.15
2019-03-21T13:35:32.570Z,16.21
2019-03-21T13:37:02.583Z,16.37
2019-03-21T13:38:36.917Z,16.55
2019-03-21T13:40:11.535Z,16.59
2019-03-21T13:41:45.759Z,16.64
2019-03-21T13:43:20.149Z,16.66
2019-03-21T13:44:56.364Z,16.54
2019-03-21T13:46:30.596Z,16.42
2019-03-21T13:48:05.370Z,16.33
2019-03-21T13:49:39.761Z,16.25
2019-03-21T13:51:14.006Z,16.31
2019-03-21T13:52:48.609Z,16.40
2019-03-21T13:54:22.947Z,16.42
2019-03-21T13:55:57.221Z,16.54
2019-03-21T13:57:31.521Z,16.60
2019-03-21T13:59:05.830Z,16.63
2019-03-21T14:00:41.193Z,16.62
2019-03-21T14:02:15.796Z,16.56
2019-03-21T14:03:50.121Z,16.45
2019-03-21T14:05:24.408Z,16.25
2019-03-21T14:06:58.637Z,16.08
2019-03-21T14:08:33.610Z,15.99
2019-03-21T14:10:09.513Z,15.96
2019-03-21T14:11:43.825Z,16.00
2019-03-21T14:13:19.171Z,16.03
2019-03-21T14:14:53.521Z,16.01
2019-03-21T14:16:27.813Z,15.89
2019-03-21T14:18:02.117Z,15.91
2019-03-21T14:19:36.370Z,15.98
2019-03-21T14:21:10.722Z,16.07
2019-03-21T14:22:44.958Z,16.13
2019-03-21T14:24:19.279Z,16.15
2019-03-21T14:25:53.591Z,16.05
2019-03-21T14:27:27.871Z,15.99
2019-03-21T14:29:12.112Z,15.93
2019-03-21T14:30:38.127Z,15.69
2019-03-21T14:32:12.446Z,15.59
2019-03-21T14:33:46.800Z,15.51
2019-03-21T14:35:25.792Z,15.55
2019-03-21T14:37:00.099Z,15.41
2019-03-21T14:38:34.415Z,15.32
2019-03-21T14:40:11.621Z,15.30
2019-03-21T14:41:46.132Z,15.28
2019-03-21T14:43:20.433Z,15.22
2019-03-21T14:44:54.736Z,15.12
2019-03-21T14:46:29.109Z,15.08
2019-03-21T14:48:03.441Z,14.98
2019-03-21T14:49:37.683Z,14.94
2019-03-21T14:51:11.922Z,14.86
2019-03-21T14:52:46.340Z,14.86
2019-03-21T14:54:20.659Z,14.83
2019-03-21T14:55:54.894Z,14.75
2019-03-21T14:57:29.221Z,14.69
2019-03-21T14:59:03.561Z,14.61
2019-03-21T15:00:37.801Z,14.56
2019-03-21T15:02:12.164Z,14.54
2019-03-21T15:03:46.437Z,14.46
2019-03-21T15:05:21.274Z,14.39
2019-03-21T15:06:55.590Z,14.33
2019-03-21T15:08:29.964Z,14.34
2019-03-21T15:10:06.921Z,14.33
2019-03-21T15:11:41.185Z,14.31
2019-03-21T15:13:15.451Z,14.25
2019-03-21T15:14:49.789Z,14.21
2019-03-21T15:16:24.117Z,14.17
2019-03-21T15:17:58.853Z,14.10
2019-03-21T15:19:33.528Z,14.09
2019-03-21T15:21:07.881Z,14.10
2019-03-21T15:22:42.123Z,14.10
2019-03-21T15:24:16.369Z,14.01
2019-03-21T15:25:51.142Z,14.05
2019-03-21T15:27:25.851Z,13.97
2019-03-21T15:29:00.205Z,13.98
2019-03-21T15:30:34.449Z,13.94
2019-03-21T15:32:08.781Z,13.94
2019-03-21T15:33:43.213Z,13.87
2019-03-21T15:35:19.569Z,13.79
2019-03-21T15:36:53.896Z,13.78
2019-03-21T15:38:28.212Z,13.75
2019-03-21T15:40:02.508Z,13.74
2019-03-21T15:41:38.001Z,13.66
2019-03-21T15:43:12.575Z,13.60
2019-03-21T15:44:46.835Z,13.61
2019-03-21T15:46:21.197Z,13.62
2019-03-21T15:47:55.497Z,13.63
2019-03-21T15:49:29.723Z,13.63
2019-03-21T15:51:05.112Z,13.57
2019-03-21T15:52:39.607Z,13.52
2019-03-21T15:54:13.820Z,13.48
2019-03-21T15:55:48.119Z,13.44
2019-03-21T15:57:22.477Z,13.36
2019-03-21T15:58:56.718Z,13.37
2019-03-21T16:00:35.959Z,13.37
2019-03-21T16:02:10.295Z,13.36
2019-03-21T16:03:44.555Z,13.37
2019-03-21T16:05:18.792Z,13.39
2019-03-21T16:06:53.094Z,13.35
2019-03-21T16:08:28.715Z,13.35
2019-03-21T16:10:03.316Z,13.35
2019-03-21T16:11:37.793Z,13.28
2019-03-21T16:13:12.057Z,13.24
2019-03-21T16:14:49.144Z,13.24
2019-03-21T16:16:22.296Z,13.21
2019-03-21T16:17:56.616Z,13.15
2019-03-21T16:19:30.877Z,13.11
2019-03-21T16:21:06.165Z,13.10
2019-03-21T16:22:40.797Z,13.11
2019-03-21T16:24:15.069Z,13.10
2019-03-21T16:25:49.389Z,13.07
2019-03-21T16:27:23.981Z,13.06
2019-03-21T16:28:58.209Z,13.05
2019-03-21T16:30:32.563Z,13.03
2019-03-21T16:32:06.851Z,13.01
2019-03-21T16:33:43.314Z,12.97
2019-03-21T16:35:17.038Z,12.97
2019-03-21T16:36:51.371Z,12.95
2019-03-21T16:38:25.698Z,12.92
2019-03-21T16:40:00.445Z,12.88
2019-03-21T16:41:34.669Z,12.86
2019-03-21T16:43:09.005Z,12.85
2019-03-21T16:44:43.449Z,12.83
2019-03-21T16:46:17.754Z,12.84
2019-03-21T16:47:51.956Z,12.85
2019-03-21T16:49:26.319Z,12.83
2019-03-21T16:51:02.884Z,12.83
2019-03-21T16:52:36.530Z,12.84
2019-03-21T16:54:17.127Z,12.85
2019-03-21T16:55:46.863Z,12.83
2019-03-21T16:57:21.187Z,12.82
2019-03-21T16:58:55.841Z,12.83
2019-03-21T17:00:30.253Z,12.86
2019-03-21T17:02:04.618Z,12.84
2019-03-21T17:03:38.928Z,12.87
2019-03-21T17:05:13.279Z,12.86
2019-03-21T17:06:47.592Z,12.84
2019-03-21T17:08:21.858Z,12.82
2019-03-21T17:09:57.979Z,12.81
2019-03-21T17:11:32.269Z,12.80
2019-03-21T17:13:07.392Z,12.81
2019-03-21T17:14:41.944Z,12.84
2019-03-21T17:16:16.182Z,12.81
2019-03-21T17:17:52.983Z,12.80
2019-03-21T17:19:27.334Z,12.78
2019-03-21T17:21:01.530Z,12.74
2019-03-21T17:22:35.877Z,12.75
2019-03-21T17:24:10.151Z,12.77
2019-03-21T17:25:44.527Z,12.76
2019-03-21T17:27:18.780Z,12.73
2019-03-21T17:28:53.076Z,12.73
2019-03-21T17:30:27.395Z,12.75
2019-03-21T17:32:01.658Z,12.76
2019-03-21T17:33:36.457Z,12.71
2019-03-21T17:35:12.485Z,12.69
2019-03-21T17:36:46.724Z,12.65
2019-03-21T17:38:21.055Z,12.62
2019-03-21T17:39:55.365Z,12.62
2019-03-21T17:41:29.669Z,12.58
2019-03-21T17:43:04.479Z,12.57
2019-03-21T17:44:38.836Z,12.55
2019-03-21T17:46:13.687Z,12.52
2019-03-21T17:47:47.942Z,12.52
2019-03-21T17:49:22.252Z,12.53
2019-03-21T17:50:56.611Z,12.56
2019-03-21T17:52:30.893Z,12.57
2019-03-21T17:54:05.191Z,12.51
2019-03-21T17:55:39.461Z,12.48
2019-03-21T17:57:13.795Z,12.46
2019-03-21T17:58:48.097Z,12.47
2019-03-21T18:00:36.620Z,12.50
2019-03-21T18:02:10.970Z,12.49
2019-03-21T18:03:45.565Z,12.48
2019-03-21T18:05:19.871Z,12.48
2019-03-21T18:06:54.136Z,12.46
2019-03-21T18:08:28.459Z,12.47
2019-03-21T18:10:03.453Z,12.49
2019-03-21T18:11:37.690Z,12.47
2019-03-21T18:13:12.022Z,12.42
2019-03-21T18:14:46.325Z,12.42
2019-03-21T18:16:20.665Z,12.41
2019-03-21T18:17:54.893Z,12.41
2019-03-21T18:19:29.212Z,12.42
2019-03-21T18:21:03.540Z,12.41
2019-03-21T18:22:37.760Z,12.42
2019-03-21T18:24:12.143Z,12.41
2019-03-21T18:25:46.403Z,12.36
2019-03-21T18:27:20.631Z,12.36
2019-03-21T18:28:54.893Z,12.36
2019-03-21T18:30:29.227Z,12.34
2019-03-21T18:32:03.547Z,12.29
2019-03-21T18:33:37.809Z,12.28
2019-03-21T18:35:13.149Z,12.26
2019-03-21T18:36:47.447Z,12.14
2019-03-21T18:38:21.681Z,12.30
2019-03-21T18:39:56.068Z,12.29
2019-03-21T18:41:30.329Z,12.29
2019-03-21T18:43:04.605Z,12.29
2019-03-21T18:44:38.839Z,12.27
2019-03-21T18:46:13.490Z,12.27
2019-03-21T18:47:48.337Z,12.29
2019-03-21T18:49:22.605Z,12.26
2019-03-21T18:50:56.829Z,12.26
2019-03-21T18:52:31.172Z,12.26
2019-03-21T18:54:05.478Z,12.21
2019-03-21T18:55:39.800Z,12.24
2019-03-21T18:57:14.082Z,12.21
2019-03-21T18:58:48.390Z,12.22
2019-03-21T19:00:22.672Z,12.26
2019-03-21T19:01:58.681Z,12.29
2019-03-21T19:03:32.994Z,12.25
2019-03-21T19:05:07.507Z,12.27
2019-03-21T19:06:41.740Z,12.24
2019-03-21T19:08:16.149Z,12.24
2019-03-21T19:09:50.347Z,12.21
2019-03-21T19:11:26.246Z,12.25
2019-03-21T19:13:00.609Z,12.26
2019-03-21T19:14:34.841Z,12.21
2019-03-21T19:16:09.090Z,12.21
2019-03-21T19:17:43.663Z,12.19
2019-03-21T19:19:18.011Z,12.20
2019-03-21T19:20:52.250Z,12.14
2019-03-21T19:22:26.496Z,12.07
2019-03-21T19:24:00.852Z,12.06
2019-03-21T19:25:35.105Z,12.08
2019-03-21T19:27:11.379Z,12.06
2019-03-21T19:28:45.395Z,12.09
2019-03-21T19:30:21.056Z,12.08
2019-03-21T19:31:55.377Z,12.08
2019-03-21T19:33:29.606Z,12.06
2019-03-21T19:35:04.903Z,12.06
2019-03-21T19:36:39.191Z,12.06
2019-03-21T19:38:14.426Z,12.05
2019-03-21T19:39:48.745Z,12.04
2019-03-21T19:41:23.093Z,12.00
2019-03-21T19:42:57.372Z,11.95
2019-03-21T19:44:31.613Z,11.93
2019-03-21T19:46:06.426Z,11.92
2019-03-21T19:47:40.773Z,11.92
2019-03-21T19:49:15.579Z,11.92
2019-03-21T19:50:51.309Z,11.93
2019-03-21T19:52:25.615Z,11.88
2019-03-21T19:53:59.866Z,11.85
2019-03-21T19:55:34.120Z,11.77
2019-03-21T19:57:08.413Z,11.74
2019-03-21T19:58:42.749Z,11.70
2019-03-21T20:00:23.934Z,11.69
2019-03-21T20:01:58.233Z,11.67
2019-03-21T20:03:32.557Z,11.66
2019-03-21T20:05:08.859Z,11.61
2019-03-21T20:06:43.207Z,11.64
2019-03-21T20:08:17.510Z,11.65
2019-03-21T20:09:51.858Z,11.61
2019-03-21T20:11:26.237Z,11.60
2019-03-21T20:13:00.541Z,11.62
2019-03-21T20:14:34.867Z,11.62
2019-03-21T20:16:09.207Z,11.63
2019-03-21T20:17:43.509Z,11.65
2019-03-21T20:19:19.920Z,11.68
2019-03-21T20:20:54.531Z,11.66
2019-03-21T20:22:28.843Z,11.67
2019-03-21T20:24:03.081Z,11.68
2019-03-21T20:25:42.903Z,11.66
2019-03-21T20:27:13.797Z,11.66
2019-03-21T20:28:48.045Z,11.65
2019-03-21T20:30:25.277Z,11.65
2019-03-21T20:31:59.648Z,11.66
2019-03-21T20:33:33.916Z,11.66
2019-03-21T20:35:09.042Z,11.65
2019-03-21T20:36:43.396Z,11.61